createdAt,value
2023-04-02T00:03:03.062Z,98547.31
2023-04-02T00:09:56.902Z,98546.72
2023-04-02T00:16:04.136Z,98549.00
2023-04-02T00:22:21.047Z,98513.63
2023-04-02T00:28:25.046Z,98561.06
2023-04-02T00:35:01.239Z,98540.91
2023-04-02T00:41:18.109Z,98562.72
2023-04-02T00:48:43.252Z,98326.81
2023-04-02T00:54:56.681Z,98476.66
2023-04-02T01:01:05.747Z,98572.97
2023-04-02T01:07:22.217Z,98319.88
2023-04-02T01:13:54.735Z,98578.97
2023-04-02T01:20:08.939Z,98590.00
2023-04-02T01:26:48.078Z,98596.00
2023-04-02T01:32:50.724Z,98591.44
2023-04-02T01:39:18.892Z,98497.97
2023-04-02T01:45:26.341Z,98592.25
2023-04-02T01:52:03.245Z,98346.69
2023-04-02T01:58:40.418Z,98535.19
2023-04-02T02:05:03.466Z,98517.53
2023-04-02T02:11:06.844Z,98471.44
2023-04-02T02:17:25.478Z,98567.59
2023-04-02T02:23:42.908Z,98505.56
2023-04-02T02:29:50.486Z,98564.69
2023-04-02T02:36:32.775Z,98482.72
2023-04-02T02:42:58.850Z,98616.13
2023-04-02T02:49:30.170Z,98474.31
2023-04-02T02:55:56.671Z,98385.22
2023-04-02T03:02:04.165Z,98626.63
2023-04-02T03:08:19.675Z,98610.38
2023-04-02T03:14:45.290Z,98628.31
2023-04-02T03:21:17.785Z,98632.25
2023-04-02T03:27:47.600Z,98640.78
2023-04-02T03:34:23.065Z,98614.25
2023-04-02T03:40:53.604Z,98610.28
2023-04-02T03:47:25.210Z,98532.84
2023-04-02T03:53:53.234Z,98687.88
2023-04-02T04:00:31.276Z,98687.22
2023-04-02T04:06:43.465Z,98461.94
2023-04-02T04:12:53.302Z,98553.53
2023-04-02T04:19:04.842Z,98679.19
2023-04-02T04:25:35.530Z,98480.19
2023-04-02T04:31:59.644Z,98570.50
2023-04-02T04:38:13.457Z,98734.72
2023-04-02T04:45:44.856Z,98729.94
2023-04-02T04:52:18.253Z,98724.97
2023-04-02T04:58:49.423Z,98560.91
2023-04-02T05:05:26.520Z,98763.41
2023-04-02T05:12:32.022Z,98509.34
2023-04-02T05:19:01.286Z,98751.78
2023-04-02T05:25:16.823Z,98776.84
2023-04-02T05:31:43.613Z,98790.19
2023-04-02T05:38:19.425Z,98786.44
2023-04-02T05:44:42.970Z,98569.91
2023-04-02T05:51:01.032Z,98536.22
2023-04-02T05:57:56.611Z,98619.91
2023-04-02T06:12:08.357Z,98555.03
2023-04-02T06:18:29.738Z,98736.94
2023-04-02T06:24:45.521Z,98817.81
2023-04-02T06:31:11.291Z,98779.06
2023-04-02T06:43:59.061Z,98829.31
2023-04-02T06:51:18.022Z,98781.13
2023-04-02T06:57:26.797Z,98829.59
2023-04-02T07:03:34.665Z,98794.22
2023-04-02T07:09:37.043Z,98824.50
2023-04-02T07:15:55.721Z,98824.09
2023-04-02T07:22:15.730Z,98730.28
2023-04-02T07:28:22.399Z,98787.41
2023-04-02T07:35:07.761Z,98723.53
2023-04-02T07:41:22.828Z,98838.34
2023-04-02T07:47:32.011Z,98739.38
2023-04-02T07:53:42.117Z,98777.16
2023-04-02T08:00:41.831Z,98619.78
2023-04-02T08:06:48.958Z,98850.28
2023-04-02T08:12:57.483Z,98845.97
2023-04-02T08:19:03.939Z,98855.00
2023-04-02T08:25:17.599Z,98704.31
2023-04-02T08:31:51.902Z,98848.22
2023-04-02T08:37:57.481Z,98841.06
2023-04-02T08:44:23.075Z,98656.84
2023-04-02T08:57:25.053Z,98870.44
2023-04-02T09:03:52.381Z,98861.47
2023-04-02T09:09:58.210Z,98869.59
2023-04-02T09:16:45.924Z,98855.06
2023-04-02T09:22:57.554Z,98783.63
2023-04-02T09:29:28.898Z,98759.47
2023-04-02T09:35:38.503Z,98889.28
2023-04-02T09:41:40.994Z,98890.22
2023-04-02T09:47:48.426Z,98808.31
2023-04-02T09:54:16.943Z,98904.22
2023-04-02T10:00:42.315Z,98795.72
2023-04-02T10:06:51.976Z,98905.22
2023-04-02T10:13:18.520Z,98861.84
2023-04-02T10:19:29.280Z,98911.53
2023-04-02T10:25:37.864Z,98914.69
2023-04-02T10:32:03.348Z,98923.09
2023-04-02T10:38:28.085Z,98908.19
2023-04-02T10:44:52.179Z,98871.66
2023-04-02T10:51:09.917Z,98910.69
2023-04-02T10:57:38.233Z,98878.09
2023-04-02T11:03:57.821Z,98931.44
2023-04-02T11:10:03.542Z,98925.63
2023-04-02T11:16:09.778Z,98921.63
2023-04-02T11:22:26.278Z,98916.94
2023-04-02T11:28:50.298Z,98918.44
2023-04-02T11:35:06.448Z,98924.00
2023-04-02T11:41:09.900Z,98913.47
2023-04-02T11:47:19.376Z,98924.47
2023-04-02T11:53:49.959Z,98890.63
2023-04-02T12:00:07.504Z,98907.94
2023-04-02T12:06:48.137Z,98931.75
2023-04-02T12:12:55.979Z,98861.31
2023-04-02T12:19:00.042Z,98927.25
2023-04-02T12:25:09.546Z,98927.44
2023-04-02T12:31:20.037Z,98922.75
2023-04-02T12:37:28.511Z,98907.38
2023-04-02T12:43:41.029Z,98903.56
2023-04-02T12:49:45.527Z,98894.16
2023-04-02T12:55:59.407Z,98901.47
2023-04-02T13:02:17.536Z,98774.25
2023-04-02T13:08:49.770Z,98910.13
2023-04-02T13:14:57.624Z,98911.03
2023-04-02T13:21:06.330Z,98914.66
2023-04-02T13:27:11.535Z,98898.50
2023-04-02T13:33:20.018Z,98920.47
2023-04-02T13:39:24.258Z,98867.00
2023-04-02T13:45:37.623Z,98890.59
2023-04-02T13:51:46.512Z,98922.66
2023-04-02T13:58:01.092Z,98901.31
2023-04-02T14:04:08.496Z,98904.09
2023-04-02T14:10:58.110Z,98898.69
2023-04-02T14:17:14.635Z,98897.81
2023-04-02T14:23:26.126Z,98935.16
2023-04-02T14:29:35.858Z,98942.88
2023-04-02T14:35:45.111Z,98944.78
2023-04-02T14:41:59.609Z,98952.28
2023-04-02T14:48:12.132Z,98945.75
2023-04-02T14:54:44.001Z,98911.41
2023-04-02T15:00:59.240Z,98967.31
2023-04-02T15:07:16.718Z,98972.78
2023-04-02T15:13:25.198Z,98972.03
2023-04-02T15:19:27.697Z,98977.63
2023-04-02T15:25:54.074Z,98981.84
2023-04-02T15:32:08.719Z,98944.19
2023-04-02T15:38:28.234Z,99002.97
2023-04-02T15:44:41.754Z,98926.41
2023-04-02T15:51:10.319Z,99025.63
2023-04-02T15:57:37.946Z,99031.50
2023-04-02T16:03:51.462Z,98990.59
2023-04-02T16:10:38.374Z,98946.13
2023-04-02T16:16:49.624Z,99053.97
2023-04-02T16:23:07.839Z,99068.19
2023-04-02T16:29:28.593Z,99073.91
2023-04-02T16:35:56.244Z,99087.34
2023-04-02T16:42:13.738Z,99085.00
2023-04-02T16:48:51.303Z,99022.59
2023-04-02T16:55:27.922Z,99067.91
2023-04-02T17:01:30.389Z,99113.41
2023-04-02T17:07:53.387Z,99120.09
2023-04-02T17:14:06.510Z,99103.94
2023-04-02T17:20:20.272Z,99145.66
2023-04-02T17:26:27.405Z,99149.22
2023-04-02T17:32:33.933Z,99006.28
2023-04-02T17:39:06.537Z,99151.25
2023-04-02T17:45:23.046Z,99162.47
2023-04-02T17:51:35.343Z,99136.03
2023-04-02T17:57:47.528Z,99169.97
2023-04-02T18:04:37.431Z,99176.19
2023-04-02T18:10:53.151Z,99186.69
2023-04-02T18:17:12.673Z,99197.75
2023-04-02T18:23:54.284Z,99191.13
2023-04-02T18:30:38.165Z,99210.88
2023-04-02T18:37:02.517Z,99214.25
2023-04-02T18:43:42.166Z,99222.16
2023-04-02T18:49:54.337Z,99227.88
2023-04-02T18:56:12.249Z,99224.84
2023-04-02T19:02:41.904Z,99233.97
2023-04-02T19:09:08.596Z,99251.56
2023-04-02T19:15:19.822Z,99255.03
2023-04-02T19:21:45.376Z,99245.28
2023-04-02T19:28:20.925Z,99252.66
2023-04-02T19:34:44.479Z,99257.41
2023-04-02T19:41:22.111Z,99203.63
2023-04-02T19:47:25.601Z,99259.19
2023-04-02T19:53:35.856Z,99281.22
2023-04-02T19:59:38.544Z,99275.44
2023-04-02T20:05:42.929Z,99289.50
2023-04-02T20:11:47.536Z,99267.91
2023-04-02T20:17:51.964Z,99186.56
2023-04-02T20:23:56.448Z,99286.31
2023-04-02T20:29:58.898Z,99292.94
2023-04-02T20:36:20.657Z,99300.41
2023-04-02T20:42:23.869Z,99300.81
2023-04-02T20:48:29.116Z,99305.28
2023-04-02T20:54:31.869Z,99285.88
2023-04-02T21:00:34.342Z,99249.25
2023-04-02T21:06:42.754Z,99264.53
2023-04-02T21:12:45.295Z,99317.16
2023-04-02T21:18:49.725Z,99322.84
2023-04-02T21:24:52.178Z,99295.16
2023-04-02T21:31:22.825Z,99323.84
2023-04-02T21:37:25.278Z,99324.72
2023-04-02T21:43:31.677Z,99329.50
2023-04-02T21:49:34.254Z,99299.75
2023-04-02T21:55:36.831Z,99331.84
2023-04-02T22:01:43.093Z,99242.56
2023-04-02T22:07:45.284Z,99322.53
2023-04-02T22:13:51.033Z,99269.28
2023-04-02T22:19:53.488Z,99221.13
2023-04-02T22:25:59.961Z,99343.94
2023-04-02T22:32:02.638Z,99347.19
2023-04-02T22:38:05.871Z,99348.34
2023-04-02T22:44:08.331Z,99360.50
2023-04-02T22:50:11.804Z,99336.28
2023-04-02T22:56:21.238Z,99368.25
2023-04-02T23:02:23.778Z,99348.34
2023-04-02T23:08:29.433Z,99374.16
2023-04-02T23:14:31.641Z,99373.94
2023-04-02T23:20:35.432Z,99386.81
2023-04-02T23:26:38.636Z,99381.22
2023-04-02T23:32:41.082Z,99377.28
2023-04-02T23:38:43.486Z,99379.97
2023-04-02T23:44:45.954Z,99377.88
2023-04-02T23:50:47.962Z,99378.31
2023-04-02T23:56:52.406Z,99307.75
